Geraldton Greenstone Regional Airport
CYGQ : rendu visible

Aérodrome :











RETROUVEZ-NOUS SUR...

 
LOGIN :

S'inscrire | Disclaimer

   EN    FR    IT 

 









Légende :    VFR   VFR Marginal   IFR   IFR Intensif   IFR Très Intensif
Visi : 
Plafond : 
>= 8 km
>= 3000ft
5 à 8 km
1000 à 3000 ft
1500m à 5 km
500 à 1000 ft
800 à 1500m
200 à 500 ft
< 800m
< 200 ft
Symboles :   Orages  Brouillard  Fortes neiges  Fortes précipitations  Vent > 20 kt






- Altitude de l'aérodrome : 1144 ft
- Code IATA : YGQ


CYGQ - Geraldton Greenstone Regional

DERNIER METAR :
  • 082000Z 36007KT 15SM FEW016 FEW190 BKN210 M16/M23 A2986 RMK SC1AC1CI4 SLP141

METARs EXPIRÉS :
  • 081900Z 34013KT 15SM FEW016 SCT230 BKN250 M15/M20 A2983 RMK SC2CS1CI4 SLP128
  • 081812Z 35009KT 320V020 15SM DRSN SCT034 SCT100 BKN230 BKN250 M14/M20 A2981 RMK SC3AC1CS2CI1 HALO SLP123
  • 081800Z 35012G19KT 15SM -SN DRSN BKN033 M14/M20 A2981 RMK SC7 SLP121

TAF TAF CYGQ
Valide du 08 à 20h jusqu'au 09 à 08h UTC


081938Z 0820/0908 34012KT P6SM FEW020 SCT230
BECMG 0900/0902 05008KT
FM090700 06005KT P6SM OVC120 RMK NXT FCST BY 090200Z



MET'MAP, la Météo Aéronautique d'un coup d'oeil ! - Copyright ORBIFLY Décembre 2007 - Disclaimer

ORBIFLY MET'MAP TEAM :

Programmation & Développement : Alexandra Zaïnal
Sur une idée originale de : Baudouin d'Aumeries
Assistance à la programmation : Marc-Olivier Méhu
Soutien technique & logistique : Manuel Goepfert

Contact : metmap@orbifly.com




SOURCES & CREDITS :

   NOAA       Earth
Advisory